createdAt,value
2019-01-30T00:02:24.779Z,11.53
2019-01-30T00:04:56.146Z,11.37
2019-01-30T00:07:27.518Z,12.00
2019-01-30T00:09:58.899Z,11.60
2019-01-30T00:12:30.328Z,10.93
2019-01-30T00:15:01.766Z,11.00
2019-01-30T00:17:33.647Z,10.83
2019-01-30T00:20:09.331Z,11.03
2019-01-30T00:22:40.800Z,11.10
2019-01-30T00:25:15.845Z,11.00
2019-01-30T00:27:47.234Z,10.13
2019-01-30T00:30:25.517Z,9.70
2019-01-30T00:32:57.145Z,11.00
2019-01-30T00:35:28.905Z,10.43
2019-01-30T00:38:00.279Z,10.00
2019-01-30T00:40:31.802Z,10.33
2019-01-30T00:43:03.200Z,11.67
2019-01-30T00:45:34.693Z,10.83
2019-01-30T00:48:06.478Z,10.30
2019-01-30T00:50:37.986Z,10.20
2019-01-30T00:53:09.552Z,9.80
2019-01-30T00:55:40.932Z,10.17
2019-01-30T00:58:12.388Z,9.93
2019-01-30T01:00:43.824Z,10.00
2019-01-30T01:03:15.502Z,11.17
2019-01-30T01:05:47.063Z,10.73
2019-01-30T01:08:18.494Z,10.17
2019-01-30T01:10:49.941Z,10.10
2019-01-30T01:13:21.495Z,10.10
2019-01-30T01:15:52.901Z,9.63
2019-01-30T01:18:24.362Z,9.10
2019-01-30T01:20:55.816Z,9.60
2019-01-30T01:23:27.325Z,9.50
2019-01-30T01:25:58.754Z,9.50
2019-01-30T01:28:30.074Z,10.50
2019-01-30T01:31:01.460Z,9.53
2019-01-30T01:33:32.851Z,9.00
2019-01-30T01:36:04.348Z,9.37
2019-01-30T01:38:35.791Z,9.57
2019-01-30T01:41:07.212Z,9.97
2019-01-30T01:43:38.662Z,10.07
2019-01-30T01:46:10.087Z,9.73
2019-01-30T01:48:41.423Z,9.40
2019-01-30T01:51:12.793Z,9.00
2019-01-30T01:53:44.340Z,9.87
2019-01-30T01:56:15.719Z,9.23
2019-01-30T01:58:47.152Z,8.53
2019-01-30T02:01:18.576Z,8.23
2019-01-30T02:03:51.071Z,8.07
2019-01-30T02:06:22.552Z,8.23
2019-01-30T02:08:53.989Z,8.50
2019-01-30T02:11:25.419Z,7.77
2019-01-30T02:13:56.900Z,7.47
2019-01-30T02:16:28.338Z,7.90
2019-01-30T02:18:59.684Z,7.73
2019-01-30T02:21:31.035Z,7.43
2019-01-30T02:24:02.437Z,8.07
2019-01-30T02:26:33.901Z,8.23
2019-01-30T02:29:05.477Z,7.97
2019-01-30T02:31:36.873Z,8.20
2019-01-30T02:34:08.238Z,7.33
2019-01-30T02:36:41.275Z,7.57
2019-01-30T02:39:12.622Z,7.50
2019-01-30T02:41:44.028Z,7.30
2019-01-30T02:44:15.298Z,7.20
2019-01-30T02:46:46.738Z,7.10
2019-01-30T02:49:18.036Z,7.70
2019-01-30T02:51:49.408Z,7.03
2019-01-30T02:54:20.808Z,7.37
2019-01-30T02:56:52.090Z,6.80
2019-01-30T02:59:23.502Z,7.10
2019-01-30T03:01:56.544Z,7.40
2019-01-30T03:04:28.026Z,7.57
2019-01-30T03:06:59.540Z,7.37
2019-01-30T03:09:30.923Z,7.23
2019-01-30T03:12:02.349Z,7.90
2019-01-30T03:14:33.731Z,8.30
2019-01-30T03:17:05.193Z,8.03
2019-01-30T03:19:36.484Z,8.20
2019-01-30T03:22:07.903Z,8.00
2019-01-30T03:24:39.176Z,8.07
2019-01-30T03:27:10.709Z,7.73
2019-01-30T03:29:42.031Z,8.33
2019-01-30T03:32:13.523Z,7.20
2019-01-30T03:34:44.841Z,7.97
2019-01-30T03:37:16.114Z,8.67
2019-01-30T03:39:47.351Z,10.50
2019-01-30T03:42:21.936Z,9.90
2019-01-30T03:44:53.302Z,9.57
2019-01-30T03:47:24.543Z,9.13
2019-01-30T03:49:55.786Z,9.50
2019-01-30T03:52:27.107Z,9.50
2019-01-30T03:54:58.412Z,9.67
2019-01-30T03:57:29.718Z,9.27
2019-01-30T04:00:01.013Z,10.10
2019-01-30T04:02:32.330Z,10.13
2019-01-30T04:05:03.848Z,10.50
2019-01-30T04:07:35.197Z,10.77
2019-01-30T04:10:14.052Z,10.20
2019-01-30T04:12:45.422Z,9.80
2019-01-30T04:15:16.871Z,9.67
2019-01-30T04:17:48.404Z,9.83
2019-01-30T04:20:21.548Z,8.63
2019-01-30T04:22:53.001Z,8.23
2019-01-30T04:25:24.308Z,8.90
2019-01-30T04:27:55.704Z,8.87
2019-01-30T04:30:27.269Z,8.13
2019-01-30T04:32:58.943Z,8.00
2019-01-30T04:35:30.458Z,7.87
2019-01-30T04:38:04.402Z,8.60
2019-01-30T04:40:35.891Z,8.33
2019-01-30T04:43:07.525Z,7.93
2019-01-30T04:45:38.975Z,8.50
2019-01-30T04:48:10.382Z,7.23
2019-01-30T04:50:41.797Z,8.00
2019-01-30T04:53:13.469Z,8.10
2019-01-30T04:55:45.013Z,8.17
2019-01-30T04:58:16.562Z,7.77
2019-01-30T05:00:47.979Z,7.90
2019-01-30T05:03:19.399Z,8.40
2019-01-30T05:05:56.975Z,8.73
2019-01-30T05:08:28.307Z,9.37
2019-01-30T05:10:59.667Z,9.80
2019-01-30T05:13:31.011Z,10.07
2019-01-30T05:16:02.556Z,9.40
2019-01-30T05:18:33.925Z,10.17
2019-01-30T05:21:05.535Z,10.10
2019-01-30T05:23:44.370Z,10.03
2019-01-30T05:26:15.838Z,11.30
2019-01-30T05:28:47.131Z,10.63
2019-01-30T05:31:18.561Z,10.97
2019-01-30T05:33:49.931Z,12.20
2019-01-30T05:36:21.518Z,13.03
2019-01-30T05:38:54.498Z,14.17
2019-01-30T05:41:25.876Z,14.20
2019-01-30T05:43:57.195Z,13.70
2019-01-30T05:46:28.735Z,13.83
2019-01-30T05:49:00.080Z,14.97
2019-01-30T05:51:31.497Z,14.63
2019-01-30T05:54:02.766Z,15.60
2019-01-30T05:56:40.288Z,16.83
2019-01-30T05:59:11.662Z,16.27
2019-01-30T06:01:43.191Z,18.37
2019-01-30T06:04:14.542Z,17.40
2019-01-30T06:06:46.228Z,16.67
2019-01-30T06:09:19.238Z,16.63
2019-01-30T06:11:50.667Z,16.93
2019-01-30T06:14:21.895Z,19.67
2019-01-30T06:16:53.271Z,17.93
2019-01-30T06:19:24.593Z,17.50
2019-01-30T06:21:55.919Z,17.83
2019-01-30T06:24:27.167Z,18.03
2019-01-30T06:27:00.317Z,19.70
2019-01-30T06:29:31.565Z,20.13
2019-01-30T06:32:02.867Z,20.30
2019-01-30T06:34:34.181Z,21.40
2019-01-30T06:37:05.609Z,21.70
2019-01-30T06:39:36.922Z,20.30
2019-01-30T06:42:08.357Z,24.87
2019-01-30T06:44:39.596Z,20.00
2019-01-30T06:47:11.454Z,23.57
2019-01-30T06:49:42.699Z,26.73
2019-01-30T06:52:14.334Z,19.60
2019-01-30T06:54:45.576Z,27.07
2019-01-30T06:57:17.069Z,21.00
2019-01-30T06:59:48.314Z,17.73
2019-01-30T07:02:19.698Z,18.43
2019-01-30T07:04:50.997Z,18.70
2019-01-30T07:07:22.391Z,17.73
2019-01-30T07:09:53.705Z,18.93
2019-01-30T07:12:25.173Z,18.90
2019-01-30T07:14:56.499Z,20.30
2019-01-30T07:17:27.787Z,17.80
2019-01-30T07:19:59.113Z,17.13
2019-01-30T07:22:30.481Z,18.77
2019-01-30T07:25:01.741Z,18.20
2019-01-30T07:27:33.181Z,20.17
2019-01-30T07:30:19.375Z,21.67
2019-01-30T07:32:50.817Z,18.60
2019-01-30T07:35:22.240Z,19.40
2019-01-30T07:37:54.269Z,17.47
2019-01-30T07:40:25.557Z,19.27
2019-01-30T07:42:56.913Z,19.87
2019-01-30T07:45:29.171Z,22.03
2019-01-30T07:48:06.637Z,20.90
2019-01-30T07:50:37.884Z,20.97
2019-01-30T07:53:09.173Z,20.07
2019-01-30T07:55:40.477Z,20.73
2019-01-30T07:58:11.846Z,18.63
2019-01-30T08:00:43.243Z,17.57
2019-01-30T08:03:14.533Z,18.27
2019-01-30T08:05:45.842Z,18.70
2019-01-30T08:08:17.132Z,19.53
2019-01-30T08:10:48.382Z,18.43
2019-01-30T08:13:19.670Z,19.13
2019-01-30T08:15:50.916Z,17.90
2019-01-30T08:18:22.284Z,18.73
2019-01-30T08:20:53.603Z,17.03
2019-01-30T08:23:25.169Z,15.10
2019-01-30T08:25:56.507Z,16.10
2019-01-30T08:28:28.073Z,15.10
2019-01-30T08:30:59.610Z,17.10
2019-01-30T08:33:31.000Z,15.67
2019-01-30T08:36:02.380Z,16.27
2019-01-30T08:38:33.745Z,14.23
2019-01-30T08:41:05.183Z,13.00
2019-01-30T08:43:36.521Z,14.03
2019-01-30T08:46:08.151Z,12.40
2019-01-30T08:48:39.747Z,12.60
2019-01-30T08:51:11.786Z,12.50
2019-01-30T08:53:43.255Z,11.53
2019-01-30T08:56:14.699Z,11.70
2019-01-30T08:58:46.473Z,12.97
2019-01-30T09:01:17.756Z,13.77
2019-01-30T09:03:49.192Z,12.63
2019-01-30T09:06:20.651Z,12.10
2019-01-30T09:08:51.933Z,15.27
2019-01-30T09:11:23.532Z,16.13
2019-01-30T09:13:54.848Z,17.67
2019-01-30T09:16:26.263Z,15.40
2019-01-30T09:18:57.577Z,14.30
2019-01-30T09:21:28.891Z,15.10
2019-01-30T09:24:00.480Z,13.17
2019-01-30T09:26:32.048Z,12.20
2019-01-30T09:29:03.724Z,12.80
2019-01-30T09:31:35.324Z,11.73
2019-01-30T09:34:07.392Z,11.20
2019-01-30T09:36:38.872Z,9.63
2019-01-30T09:39:10.508Z,9.30
2019-01-30T09:41:41.952Z,8.20
2019-01-30T09:44:16.763Z,7.77
2019-01-30T09:46:48.256Z,7.73
2019-01-30T09:49:21.857Z,8.10
2019-01-30T09:51:59.275Z,7.53
2019-01-30T09:54:39.312Z,7.53
2019-01-30T10:00:50.866Z,6.93
2019-01-30T10:42:35.152Z,7.30
2019-01-30T10:48:43.641Z,7.60
2019-01-30T10:51:47.658Z,6.77
2019-01-30T11:05:02.811Z,4.27
2019-01-30T11:10:38.826Z,3.30
2019-01-30T11:13:08.323Z,2.90
2019-01-30T11:16:01.548Z,2.70
2019-01-30T11:18:43.803Z,2.20
2019-01-30T11:21:32.120Z,1.57
2019-01-30T11:24:06.808Z,1.77
2019-01-30T11:26:42.875Z,1.20
2019-01-30T11:29:25.891Z,1.27
2019-01-30T11:31:59.647Z,1.00
2019-01-30T11:35:04.102Z,1.00
2019-01-30T11:37:43.522Z,1.20
2019-01-30T11:40:40.976Z,1.00
2019-01-30T11:43:21.375Z,0.70
2019-01-30T11:45:53.100Z,1.50
2019-01-30T11:48:24.741Z,0.70
2019-01-30T11:50:56.608Z,1.00
2019-01-30T11:53:28.150Z,1.20
2019-01-30T11:56:01.014Z,1.10
2019-01-30T11:58:34.067Z,0.77
2019-01-30T12:01:12.595Z,1.10
2019-01-30T12:04:17.997Z,1.30
2019-01-30T12:07:03.408Z,1.20
2019-01-30T12:12:47.834Z,1.10
2019-01-30T12:15:32.580Z,1.20
2019-01-30T12:18:05.882Z,1.00
2019-01-30T12:20:48.060Z,1.30
2019-01-30T12:23:20.266Z,1.40
2019-01-30T12:25:53.663Z,1.20
2019-01-30T12:28:25.610Z,1.50
2019-01-30T12:31:00.337Z,1.57
2019-01-30T12:33:36.767Z,1.70
2019-01-30T12:36:08.470Z,1.50
2019-01-30T12:38:46.116Z,1.30
2019-01-30T12:41:25.366Z,1.53
2019-01-30T12:44:08.137Z,1.33
2019-01-30T12:46:47.335Z,1.60
2019-01-30T12:49:26.952Z,1.23
2019-01-30T12:51:58.687Z,1.10
2019-01-30T12:54:33.986Z,1.20
2019-01-30T12:57:09.669Z,1.20
2019-01-30T13:03:29.603Z,1.03
2019-01-30T13:06:02.845Z,1.37
2019-01-30T13:08:34.544Z,0.93
2019-01-30T13:11:06.098Z,1.00
2019-01-30T13:13:41.042Z,1.10
2019-01-30T13:16:17.031Z,0.83
2019-01-30T13:18:48.417Z,0.90
2019-01-30T13:21:19.928Z,1.10
2019-01-30T13:23:53.070Z,0.93
2019-01-30T13:26:28.794Z,0.90
2019-01-30T13:29:00.444Z,1.00
2019-01-30T13:31:31.995Z,0.80
2019-01-30T13:34:04.619Z,0.90
2019-01-30T13:36:36.050Z,0.63
2019-01-30T13:39:09.061Z,0.80
2019-01-30T13:41:40.617Z,0.90
2019-01-30T13:44:12.214Z,1.00
2019-01-30T13:46:45.569Z,0.70
2019-01-30T13:49:20.274Z,0.90
2019-01-30T13:51:51.776Z,0.90
2019-01-30T13:54:23.458Z,0.80
2019-01-30T13:56:55.123Z,0.77
2019-01-30T13:59:26.595Z,0.70
2019-01-30T14:01:57.877Z,0.80
2019-01-30T14:04:29.343Z,0.73
2019-01-30T14:07:02.227Z,0.63
2019-01-30T14:09:33.870Z,0.80
2019-01-30T14:12:05.481Z,0.80
2019-01-30T14:14:37.131Z,1.00
2019-01-30T14:17:10.230Z,1.07
2019-01-30T14:19:41.744Z,0.90
2019-01-30T14:22:13.088Z,0.87
2019-01-30T14:24:45.292Z,0.87
2019-01-30T14:27:16.894Z,1.00
2019-01-30T14:29:57.944Z,0.87
2019-01-30T14:32:23.060Z,1.00
2019-01-30T14:34:58.172Z,0.90
2019-01-30T14:37:31.116Z,1.00
2019-01-30T14:40:02.634Z,1.20
2019-01-30T14:42:34.193Z,1.37
2019-01-30T14:45:10.744Z,1.47
2019-01-30T14:47:46.164Z,1.13
2019-01-30T14:50:23.597Z,1.10
2019-01-30T14:52:55.380Z,1.43
2019-01-30T14:55:27.163Z,1.33
2019-01-30T14:57:58.739Z,1.60
2019-01-30T15:00:33.266Z,1.57
2019-01-30T15:03:04.997Z,1.60
2019-01-30T15:05:36.828Z,1.80
2019-01-30T15:08:08.622Z,1.90
2019-01-30T15:10:40.102Z,1.70
2019-01-30T15:13:11.610Z,1.73
2019-01-30T15:15:44.286Z,1.90
2019-01-30T15:18:17.681Z,1.70
2019-01-30T15:20:50.741Z,1.73
2019-01-30T15:23:23.721Z,1.90
2019-01-30T15:26:03.655Z,1.93
2019-01-30T15:28:35.443Z,1.97
2019-01-30T15:31:07.055Z,1.97
2019-01-30T15:33:38.958Z,2.00
2019-01-30T15:36:12.771Z,1.90
2019-01-30T15:38:47.090Z,2.20
2019-01-30T15:41:18.858Z,1.77
2019-01-30T15:43:56.920Z,1.80
2019-01-30T15:46:32.855Z,2.07
2019-01-30T15:49:07.364Z,1.90
2019-01-30T15:51:44.736Z,2.10
2019-01-30T15:54:18.811Z,2.03
2019-01-30T15:56:49.418Z,1.70
2019-01-30T15:59:21.016Z,1.70
2019-01-30T16:01:56.066Z,1.70
2019-01-30T16:04:36.266Z,1.60
2019-01-30T16:07:05.175Z,1.40
2019-01-30T16:09:36.531Z,1.60
2019-01-30T16:12:08.046Z,1.73
2019-01-30T16:14:39.453Z,1.80
2019-01-30T16:17:10.923Z,1.93
2019-01-30T16:19:49.384Z,2.20
2019-01-30T16:22:22.214Z,2.30
2019-01-30T16:24:55.520Z,2.07
2019-01-30T16:27:28.700Z,1.93
2019-01-30T16:30:00.323Z,2.00
2019-01-30T16:32:34.156Z,2.00
2019-01-30T16:35:15.963Z,1.80
2019-01-30T16:37:47.599Z,1.90
2019-01-30T16:40:19.514Z,1.70
2019-01-30T16:42:55.264Z,1.90
2019-01-30T16:45:33.828Z,1.83
2019-01-30T16:48:08.695Z,1.90
2019-01-30T16:50:40.281Z,1.90
2019-01-30T16:53:13.271Z,1.90
2019-01-30T16:55:44.627Z,2.03
2019-01-30T16:58:16.285Z,2.60
2019-01-30T17:00:47.763Z,2.00
2019-01-30T17:03:20.955Z,1.87
2019-01-30T17:06:06.738Z,2.23
2019-01-30T17:08:28.939Z,2.20
2019-01-30T17:11:00.529Z,2.13
2019-01-30T17:13:32.302Z,2.47
2019-01-30T17:16:03.819Z,2.00
2019-01-30T17:18:43.837Z,2.40
2019-01-30T17:21:17.011Z,3.00
2019-01-30T17:23:52.622Z,2.37
2019-01-30T17:26:25.469Z,2.27
2019-01-30T17:28:57.601Z,2.03
2019-01-30T17:31:29.282Z,2.60
2019-01-30T17:34:10.276Z,2.20
2019-01-30T17:36:43.433Z,1.93
2019-01-30T17:39:15.021Z,1.80
2019-01-30T17:41:49.387Z,1.77
2019-01-30T17:44:22.844Z,1.90
2019-01-30T17:50:10.331Z,1.73
2019-01-30T17:52:41.813Z,1.50
2019-01-30T17:55:13.797Z,3.60
2019-01-30T17:57:46.572Z,3.63
2019-01-30T18:00:27.264Z,2.00
2019-01-30T18:03:01.231Z,1.70
2019-01-30T18:05:43.755Z,2.00
2019-01-30T18:08:15.093Z,2.40
2019-01-30T18:10:46.624Z,2.20
2019-01-30T18:13:18.037Z,2.60
2019-01-30T18:15:52.664Z,1.90
2019-01-30T18:18:24.081Z,1.80
2019-01-30T18:20:55.703Z,2.20
2019-01-30T18:23:27.215Z,1.80
2019-01-30T18:26:01.230Z,1.80
2019-01-30T18:28:31.865Z,1.70
2019-01-30T18:31:02.487Z,2.23
2019-01-30T18:33:34.366Z,1.90
2019-01-30T18:36:06.283Z,1.63
2019-01-30T18:38:38.022Z,2.07
2019-01-30T18:41:12.594Z,2.10
2019-01-30T18:43:45.606Z,1.80
2019-01-30T18:46:16.975Z,1.93
2019-01-30T18:48:48.563Z,1.80
2019-01-30T18:51:19.911Z,1.77
2019-01-30T18:53:54.257Z,1.90
2019-01-30T18:56:27.395Z,2.20
2019-01-30T18:58:58.893Z,1.87
2019-01-30T19:01:30.470Z,2.30
2019-01-30T19:04:01.989Z,2.57
2019-01-30T19:06:33.442Z,2.20
2019-01-30T19:09:08.159Z,3.40
2019-01-30T19:11:39.793Z,1.80
2019-01-30T19:14:14.622Z,1.90
2019-01-30T19:16:46.194Z,2.03
2019-01-30T19:19:17.652Z,2.17
2019-01-30T19:21:49.084Z,2.07
2019-01-30T19:24:20.567Z,1.53
2019-01-30T19:26:52.108Z,1.70
2019-01-30T19:29:23.923Z,1.63
2019-01-30T19:32:00.389Z,2.00
2019-01-30T19:34:31.917Z,1.87
2019-01-30T19:37:22.754Z,1.50
2019-01-30T19:39:55.442Z,1.90
2019-01-30T19:42:28.411Z,1.60
2019-01-30T19:45:59.755Z,1.70
2019-01-30T19:51:01.655Z,1.90
2019-01-30T19:53:33.060Z,1.77
2019-01-30T19:56:05.201Z,2.97
2019-01-30T19:58:36.917Z,1.67
2019-01-30T20:01:08.414Z,1.90
2019-01-30T20:03:42.196Z,1.50
2019-01-30T20:06:14.297Z,2.00
2019-01-30T20:08:47.168Z,2.20
2019-01-30T20:11:19.560Z,2.00
2019-01-30T20:13:52.699Z,2.20
2019-01-30T20:16:24.186Z,2.00
2019-01-30T20:18:57.639Z,2.40
2019-01-30T20:21:29.254Z,2.10
2019-01-30T20:24:00.770Z,1.70
2019-01-30T20:26:32.265Z,5.70
2019-01-30T20:29:03.763Z,2.30
2019-01-30T20:31:35.171Z,2.50
2019-01-30T20:34:10.459Z,2.50
2019-01-30T20:36:41.462Z,2.33
2019-01-30T20:39:12.946Z,2.80
2019-01-30T20:41:44.568Z,2.43
2019-01-30T20:44:16.239Z,2.20
2019-01-30T20:46:47.622Z,2.33
2019-01-30T20:49:19.280Z,2.43
2019-01-30T20:51:50.794Z,2.63
2019-01-30T20:54:22.291Z,2.27
2019-01-30T20:56:53.641Z,2.97
2019-01-30T20:59:25.076Z,2.90
2019-01-30T21:01:56.567Z,2.67
2019-01-30T21:04:27.963Z,2.87
2019-01-30T21:06:59.303Z,2.97
2019-01-30T21:09:30.757Z,3.63
2019-01-30T21:12:02.224Z,3.20
2019-01-30T21:14:33.489Z,3.60
2019-01-30T21:17:04.963Z,3.97
2019-01-30T21:19:37.626Z,3.30
2019-01-30T21:22:09.008Z,3.10
2019-01-30T21:24:40.426Z,2.87
2019-01-30T21:27:12.977Z,3.70
2019-01-30T21:29:44.495Z,3.33
2019-01-30T21:32:15.927Z,3.40
2019-01-30T21:34:47.322Z,3.50
2019-01-30T21:37:20.521Z,3.83
2019-01-30T21:39:51.739Z,3.50
2019-01-30T21:42:23.372Z,3.10
2019-01-30T21:44:54.801Z,3.20
2019-01-30T21:47:26.289Z,3.27
2019-01-30T21:49:57.726Z,3.17
2019-01-30T21:52:30.272Z,3.17
2019-01-30T21:55:02.843Z,3.00
2019-01-30T21:57:34.599Z,3.03
2019-01-30T22:00:13.662Z,3.03
2019-01-30T22:02:45.170Z,3.60
2019-01-30T22:05:17.331Z,3.03
2019-01-30T22:08:00.542Z,2.80
2019-01-30T22:10:29.057Z,2.77
2019-01-30T22:13:00.517Z,2.83
2019-01-30T22:15:31.953Z,3.10
2019-01-30T22:18:03.455Z,3.10
2019-01-30T22:20:35.898Z,3.17
2019-01-30T22:23:07.380Z,3.43
2019-01-30T22:25:38.756Z,3.73
2019-01-30T22:28:10.269Z,3.20
2019-01-30T22:30:41.761Z,3.10
2019-01-30T22:33:13.292Z,3.67
2019-01-30T22:35:44.871Z,3.57
2019-01-30T22:38:17.338Z,4.33
2019-01-30T22:40:48.775Z,5.60
2019-01-30T22:43:20.255Z,5.30
2019-01-30T22:45:52.967Z,5.00
2019-01-30T22:48:24.414Z,4.90
2019-01-30T22:50:55.842Z,4.60
2019-01-30T22:53:27.295Z,5.13
2019-01-30T22:55:58.692Z,4.27
2019-01-30T22:58:30.120Z,3.60
2019-01-30T23:01:12.099Z,3.77
2019-01-30T23:04:03.341Z,3.23
2019-01-30T23:06:39.589Z,3.40
2019-01-30T23:09:32.193Z,3.70
2019-01-30T23:12:41.701Z,3.30
2019-01-30T23:15:46.419Z,3.70
2019-01-30T23:18:59.150Z,3.37
2019-01-30T23:21:44.061Z,3.03
2019-01-30T23:24:38.153Z,3.60
2019-01-30T23:27:17.134Z,3.53
2019-01-30T23:30:21.380Z,3.83
2019-01-30T23:33:28.841Z,3.90
2019-01-30T23:36:13.871Z,3.83
2019-01-30T23:39:17.361Z,3.50
2019-01-30T23:42:11.710Z,4.07
2019-01-30T23:44:56.341Z,3.70
2019-01-30T23:47:42.196Z,3.40
2019-01-30T23:50:20.830Z,3.57
2019-01-30T23:53:18.041Z,3.37
2019-01-30T23:56:03.111Z,3.70
2019-01-30T23:58:47.652Z,3.43
